Terminal Aerodrome Forecast
Issued by NWS Grand Junction, CO

Home | Current Version | Previous Version | Text Only | Print | Product List | Glossary On
Versions: 1 2 3 4 5 6 7 8 9 10 11 12 13
000
FTUS45 KGJT 282341
TAFGJT
TAF
KGJT 282341Z 2900/2924 29010KT P6SM SCT100
     FM290400 01006KT P6SM BKN120
     FM291000 04006KT P6SM BKN045
     FM291800 07008KT P6SM BKN120
     FM292100 04011KT P6SM SCT150=

USA.gov is the U.S. government's official web portal to all federal, state and local government web resources and services.